Latest Weather Observations for Port Augusta

IDS60801

Issued at 5:41 am CDT Friday 21 January 2022 (issued every 10 minutes, with the page automatically refreshed every 10 minutes)

About weather observations | Map of weather stations | Latest weather observations for SA | Other Formats
Station Details ID: 018201 Name: PORT AUGUSTA AERO Lat: -32.51 Lon: 137.72 Height: 13.97 m
Data from the previous 72 hours. | See also: Recent months at Port Augusta
Date/Time
CDT
Temp
°C
App
Temp
°C
Dew
Point
°C
Rel
Hum
%
Delta-T
°C
Wind Press
QNH
hPa
Press
MSL
hPa
Rain since
9am
mm
Dir  Spd
km/h
Gust
km/h
Spd
kts
Gust
kts
21/05:30am 28.4 25.2 16.3 47 7.5 NE 28 35 15 19 1013.8 1013.7 0.0
21/05:17am 28.6 25.4 16.2 47 7.7 NE 28 46 15 25 1013.7 1013.6 0.0
21/05:00am 28.9 25.6 16.1 46 7.9 NE 28 39 15 21 1013.5 1013.4 0.0
21/04:53am 29.0 24.7 15.9 45 8.1 NE 33 52 18 28 1013.5 1013.4 0.0
21/04:30am 29.1 24.5 16.0 45 8.1 NE 35 46 19 25 1013.3 1013.2 0.0
21/04:00am 29.1 24.5 16.0 45 8.1 ENE 35 56 19 30 1013.2 1013.1 0.0
21/03:33am 29.2 23.7 15.7 44 8.3 NE 39 57 21 31 1013.5 1013.4 0.0
21/03:30am 29.4 23.2 15.9 44 8.4 NE 43 57 23 31 1013.4 1013.3 0.0
21/03:00am 29.5 25.4 16.0 44 8.4 NE 32 46 17 25 1013.8 1013.7 0.0
21/02:30am 29.7 26.3 15.8 43 8.6 NE 28 39 15 21 1014.1 1014.0 0.0
21/02:00am 29.7 27.8 15.8 43 8.6 ENE 20 32 11 17 1014.2 1014.1 0.0
21/01:30am 29.9 26.6 16.0 43 8.6 ENE 28 37 15 20 1014.2 1014.1 0.0
21/01:00am 30.1 25.5 16.1 42 8.7 NE 35 46 19 25 1014.6 1014.5 0.0
21/12:30am 30.2 26.6 16.2 42 8.7 NE 30 44 16 24 1014.8 1014.7 0.0
21/12:00am 30.4 28.4 16.4 43 8.8 ENE 22 32 12 17 1014.9 1014.8 0.0
 
Date/Time
CDT
Temp
°C
App
Temp
°C
Dew
Point
°C
Rel
Hum
%
Delta-T
°C
Wind Press
QNH
hPa
Press
MSL
hPa
Rain since
9am
mm
Dir  Spd
km/h
Gust
km/h
Spd
kts
Gust
kts
20/11:30pm 30.3 27.4 16.0 42 8.9 ENE 26 33 14 18 1014.9 1014.8 0.0
20/11:00pm 30.4 27.5 16.0 41 9.0 ENE 26 35 14 19 1014.8 1014.7 0.0
20/10:30pm 30.5 28.2 15.8 41 9.1 ENE 22 30 12 16 1014.7 1014.6 0.0
20/10:00pm 31.0 27.6 15.8 39 9.4 ENE 28 37 15 20 1014.4 1014.3 0.0
20/09:30pm 31.3 27.1 15.7 39 9.7 ENE 32 46 17 25 1013.8 1013.7 0.0
20/09:00pm 31.8 28.5 16.1 38 9.8 ENE 28 39 15 21 1013.4 1013.3 0.0
20/08:30pm 32.1 29.2 16.0 38 10.1 ENE 26 35 14 19 1013.2 1013.1 0.0
20/08:00pm 32.5 28.4 15.9 36 10.4 ENE 32 43 17 23 1013.0 1012.9 0.0
20/07:30pm 32.9 29.5 15.8 35 10.7 ENE 28 41 15 22 1012.7 1012.6 0.0
20/07:00pm 33.6 31.0 16.0 34 11.1 ENE 24 35 13 19 1012.5 1012.4 0.0
20/06:30pm 33.5 29.6 15.5 34 11.2 ENE 30 43 16 23 1012.1 1012.0 0.0
20/06:00pm 34.0 30.1 15.5 33 11.6 ENE 30 39 16 21 1011.9 1011.8 0.0
20/05:30pm 34.6 31.1 15.5 32 12.0 ENE 28 35 15 19 1012.1 1012.0 0.0
20/05:00pm 35.8 31.7 15.0 29 13.0 NE 30 43 16 23 1012.2 1012.1 0.0
20/04:46pm 35.2 31.5 15.0 30 12.6 NE 28 48 15 26 1012.4 1012.3 0.0
20/04:30pm 35.0 31.8 15.3 30 12.3 ENE 26 37 14 20 1012.6 1012.5 0.0
20/04:00pm 34.4 30.6 14.8 30 12.1 ENE 28 35 15 19 1012.8 1012.7 0.0
20/03:30pm 34.3 31.8 15.2 31 11.9 ENE 22 39 12 21 1013.2 1013.1 0.0
20/03:00pm 35.5 32.1 15.8 31 12.4 ENE 28 41 15 22 1013.6 1013.5 0.0
20/02:30pm 34.6 31.3 16.0 33 11.7 ENE 28 44 15 24 1013.9 1013.8 0.0
20/02:00pm 34.5 31.1 15.9 33 11.7 ENE 28 43 15 23 1014.3 1014.2 0.0
20/01:30pm 33.1 28.8 16.0 35 10.7 ENE 33 43 18 23 1014.7 1014.6 0.0
20/01:00pm 33.7 29.9 16.6 36 10.8 E 32 43 17 23 1015.1 1015.0 0.0
20/12:30pm 32.0 27.9 15.9 38 10.0 ENE 32 44 17 24 1015.6 1015.5 0.0
20/12:00pm 30.7 26.3 16.7 43 8.8 E 35 48 19 26 1016.0 1015.9 0.0
20/11:30am 30.2 25.8 16.6 44 8.5 E 35 48 19 26 1016.3 1016.2 0.0
20/11:00am 29.0 25.3 16.9 48 7.6 E 32 44 17 24 1016.5 1016.4 0.0
20/10:30am 29.0 25.1 16.9 48 7.6 E 33 43 18 23 1016.5 1016.4 0.0
20/10:00am 27.5 23.6 16.5 51 6.8 ENE 32 44 17 24 1016.7 1016.6 0.0
20/09:30am 29.1 25.2 17.0 48 7.6 E 33 43 18 23 1016.5 1016.4 0.0
20/09:00am 28.2 26.1 17.1 51 7.0 ENE 24 33 13 18 1016.3 1016.2 0.0
20/08:30am 26.4 25.1 17.2 57 5.7 E 20 32 11 17 1016.0 1015.9 0.0
20/08:00am 25.8 22.6 17.2 59 5.4 E 30 39 16 21 1015.7 1015.6 0.0
20/07:30am 25.1 22.7 17.3 62 4.9 E 26 39 14 21 1015.4 1015.3 0.0
20/07:00am 24.6 22.7 17.6 65 4.4 ESE 24 33 13 18 1015.5 1015.4 0.0
20/06:30am 25.0 22.3 17.5 63 4.7 ESE 28 33 15 18 1015.5 1015.4 0.0
20/06:00am 25.4 23.3 17.1 60 5.2 E 24 32 13 17 1015.1 1015.0 0.0
20/05:30am 25.7 23.6 17.1 59 5.3 E 24 32 13 17 1015.0 1014.9 0.0
20/05:00am 26.1 23.3 17.2 58 5.6 E 28 41 15 22 1014.4 1014.3 0.0
20/04:30am 26.4 25.1 17.2 57 5.7 E 20 28 11 15 1014.4 1014.3 0.0
20/04:00am 26.7 25.4 17.2 56 5.9 E 20 32 11 17 1014.2 1014.1 0.0
20/03:30am 27.1 25.3 17.0 54 6.3 E 22 28 12 15 1014.1 1014.0 0.0
20/03:00am 27.3 24.5 16.3 51 6.8 E 26 35 14 19 1014.2 1014.1 0.0
20/02:30am 26.6 25.6 15.6 50 6.7 ESE 15 19 8 10 1014.3 1014.2 0.0
20/02:00am 26.6 25.2 14.4 47 7.3 SE 15 20 8 11 1014.3 1014.2 0.0
20/01:30am 26.5 25.4 14.3 47 7.3 SE 13 17 7 9 1014.7 1014.6 0.0
20/01:00am 26.4 24.8 13.9 46 7.4 ESE 15 19 8 10 1014.8 1014.7 0.0
20/12:30am 27.2 26.6 13.5 42 8.1 SSE 9 13 5 7 1014.5 1014.4 0.0
20/12:00am 27.0 25.5 13.0 42 8.2 SSE 13 17 7 9 1014.5 1014.4 0.0
 
Date/Time
CDT
Temp
°C
App
Temp
°C
Dew
Point
°C
Rel
Hum
%
Delta-T
°C
Wind Press
QNH
hPa
Press
MSL
hPa
Rain since
9am
mm
Dir  Spd
km/h
Gust
km/h
Spd
kts
Gust
kts
19/11:30pm 26.6 25.8 13.0 43 7.9 NE 9 15 5 8 1014.6 1014.5 0.0
19/11:00pm 25.7 25.7 14.2 49 6.8 NNW 7 11 4 6 1014.7 1014.6 0.0
19/10:30pm 26.0 24.7 13.8 47 7.2 NNW 13 19 7 10 1014.3 1014.2 0.0
19/10:00pm 26.0 24.4 12.8 44 7.7 S 13 19 7 10 1013.7 1013.6 0.0
19/09:30pm 26.4 23.4 12.5 42 8.1 S 20 24 11 13 1013.1 1013.0 0.0
19/09:00pm 26.9 23.3 11.8 39 8.7 SSW 22 30 12 16 1013.0 1012.9 0.0
19/08:30pm 27.8 23.9 10.9 35 9.6 S 22 28 12 15 1012.9 1012.8 0.0
19/08:00pm 29.1 24.7 10.3 31 10.6 SSE 24 32 13 17 1012.9 1012.8 0.0
19/07:30pm 29.6 24.4 10.2 30 11.0 SSE 28 33 15 18 1012.7 1012.6 0.0
19/07:00pm 30.0 24.1 10.5 30 11.1 SSE 32 39 17 21 1012.5 1012.4 0.0
19/06:30pm 30.2 24.5 11.2 31 11.0 SSE 32 41 17 22 1012.0 1011.9 0.0
19/06:00pm 31.6 26.0 10.3 27 12.2 SSE 30 39 16 21 1011.9 1011.8 0.0
19/05:30pm 31.7 25.5 9.3 25 12.6 SSE 32 41 17 22 1011.8 1011.7 0.0
19/05:00pm 31.8 25.7 9.9 26 12.5 SSE 32 43 17 23 1011.9 1011.8 0.0
19/04:30pm 31.8 26.0 9.3 25 12.7 SSE 30 43 16 23 1012.0 1011.9 0.0
19/04:00pm 31.8 26.2 8.7 24 12.9 SSE 28 43 15 23 1012.2 1012.1 0.0
19/03:30pm 32.3 26.4 9.2 24 13.0 SSE 30 43 16 23 1012.5 1012.4 0.0
19/03:00pm 31.8 27.0 8.7 24 12.9 SSE 24 33 13 18 1012.8 1012.7 0.0
19/02:30pm 31.4 26.9 8.4 24 12.8 SSE 22 35 12 19 1013.2 1013.1 0.0
19/02:00pm 30.7 25.8 8.4 25 12.3 SE 24 39 13 21 1013.6 1013.5 0.0
19/01:30pm 30.0 25.8 8.4 26 11.9 SE 20 32 11 17 1014.1 1014.0 0.0
19/01:00pm 29.3 24.9 8.9 28 11.3 ESE 22 35 12 19 1014.5 1014.4 0.0
19/12:30pm 29.1 24.3 8.7 28 11.2 SE 24 32 13 17 1014.7 1014.6 0.0
19/12:00pm 28.6 24.2 8.8 29 10.9 SE 22 30 12 16 1015.1 1015.0 0.0
19/11:30am 27.1 22.5 9.5 33 9.7 ESE 24 33 13 18 1015.2 1015.1 0.0
19/11:00am 25.9 21.8 8.8 34 9.3 SE 20 32 11 17 1015.4 1015.3 0.0
19/10:30am 25.3 21.5 9.2 36 8.8 SE 19 30 10 16 1015.3 1015.2 0.0
19/10:00am 24.1 20.2 9.3 39 8.0 SE 20 32 11 17 1015.3 1015.2 0.0
19/09:30am 24.0 19.7 10.7 43 7.4 SSE 24 35 13 19 1015.5 1015.4 0.0
19/09:00am 22.7 17.9 10.2 45 6.8 SSE 26 32 14 17 1015.5 1015.4 0.0
19/08:30am 22.0 17.1 9.9 46 6.5 SSE 26 33 14 18 1015.2 1015.1 0.0
19/08:00am 21.4 16.7 10.6 50 5.9 SSE 26 35 14 19 1015.1 1015.0 0.0
19/07:30am 20.5 16.6 10.9 54 5.2 S 22 28 12 15 1014.8 1014.7 0.0
19/07:00am 19.7 16.1 10.4 55 5.0 S 20 26 11 14 1014.6 1014.5 0.0
19/06:30am 19.2 15.8 10.7 58 4.6 S 19 28 10 15 1014.0 1013.9 0.0
19/06:00am 18.6 15.0 10.4 59 4.4 S 20 28 11 15 1013.9 1013.8 0.0
19/05:30am 18.1 15.4 10.5 61 4.1 S 15 19 8 10 1013.6 1013.5 0.0
19/05:00am 19.6 15.2 10.3 55 5.0 S 24 35 13 19 1013.1 1013.0 0.0
19/04:30am 20.0 14.4 10.1 53 5.3 SSE 30 39 16 21 1012.8 1012.7 0.0
19/04:00am 19.9 14.2 9.8 52 5.4 SSE 30 39 16 21 1013.0 1012.9 0.0
19/03:30am 20.0 15.4 9.6 51 5.5 SSE 24 37 13 20 1013.0 1012.9 0.0
19/03:00am 19.5 13.7 10.8 57 4.7 S 32 39 17 21 1013.0 1012.9 0.0
19/02:30am 20.3 15.5 10.4 53 5.4 S 26 33 14 18 1013.2 1013.1 0.0
19/02:00am 20.6 16.3 10.7 53 5.4 S 24 32 13 17 1013.4 1013.3 0.0
19/01:30am 20.6 16.0 11.2 55 5.2 SSE 26 35 14 19 1013.7 1013.6 0.0
19/01:00am 20.5 16.5 11.7 57 4.9 S 24 32 13 17 1014.0 1013.9 0.0
19/12:30am 20.7 17.1 11.9 57 4.9 S 22 32 12 17 1014.0 1013.9 0.0
19/12:00am 21.1 16.6 11.4 54 5.4 S 26 33 14 18 1014.0 1013.9 0.0
 
Date/Time
CDT
Temp
°C
App
Temp
°C
Dew
Point
°C
Rel
Hum
%
Delta-T
°C
Wind Press
QNH
hPa
Press
MSL
hPa
Rain since
9am
mm
Dir  Spd
km/h
Gust
km/h
Spd
kts
Gust
kts
18/11:30pm 21.0 17.0 12.9 60 4.6 S 26 35 14 19 1014.0 1013.9 0.0
18/11:00pm 21.0 16.4 12.4 58 4.8 S 28 35 15 19 1013.6 1013.5 0.0
18/10:30pm 21.4 16.2 12.8 58 4.9 S 32 39 17 21 1013.6 1013.5 0.0
18/10:12pm 21.6 16.7 12.7 57 5.1 SSW 30 48 16 26 1013.4 1013.3 0.0
18/10:00pm 21.7 16.4 12.5 56 5.2 SSW 32 41 17 22 1013.4 1013.3 0.0
18/09:30pm 22.1 16.0 11.8 52 5.8 S 35 48 19 26 1013.0 1012.9 0.0
18/09:00pm 22.9 17.3 12.2 51 6.1 S 33 39 18 21 1012.8 1012.7 0.0
18/08:30pm 23.3 17.3 12.0 49 6.4 S 35 48 19 26 1012.4 1012.3 0.0
18/08:00pm 23.9 18.3 11.6 46 6.9 S 32 41 17 22 1012.1 1012.0 0.0
18/07:30pm 24.3 18.4 12.3 47 6.9 S 35 46 19 25 1011.9 1011.8 0.0
18/07:00pm 25.1 19.5 13.3 48 6.9 S 35 46 19 25 1011.5 1011.4 0.0
18/06:30pm 26.1 20.4 11.8 41 8.2 S 33 39 18 21 1011.3 1011.2 0.0
18/06:00pm 27.0 21.2 10.7 36 9.2 S 32 39 17 21 1011.4 1011.3 0.0
18/05:30pm 27.2 21.4 10.8 36 9.3 SSE 32 43 17 23 1011.4 1011.3 0.0
18/05:00pm 26.7 20.4 11.2 38 8.8 SSE 35 44 19 24 1011.1 1011.0 0.0
18/04:30pm 26.5 20.1 10.6 37 8.9 SSE 35 43 19 23 1011.2 1011.1 0.0
18/04:00pm 25.8 19.2 10.0 37 8.7 SSE 35 44 19 24 1011.4 1011.3 0.0
18/03:30pm 26.0 19.3 9.8 36 9.0 S 35 44 19 24 1011.8 1011.7 0.0
18/03:00pm 26.4 20.9 10.5 37 8.9 S 30 39 16 21 1012.0 1011.9 0.0
18/02:30pm 25.2 18.5 9.5 37 8.6 SSE 35 43 19 23 1012.0 1011.9 0.0
18/02:00pm 24.6 18.5 9.7 39 8.2 SSE 32 39 17 21 1012.3 1012.2 0.0
18/01:30pm 24.9 19.5 10.8 41 7.9 SSE 30 37 16 20 1012.5 1012.4 0.0
18/01:00pm 24.3 20.5 12.3 47 6.9 SSE 24 35 13 19 1012.8 1012.7 0.0
18/12:30pm 23.8 20.2 13.1 51 6.2 SSE 24 35 13 19 1013.5 1013.4 0.0
18/12:00pm 23.1 19.6 13.3 54 5.7 SE 24 33 13 18 1013.5 1013.4 0.0
18/11:30am 21.9 18.2 12.7 56 5.2 SE 24 33 13 18 1013.8 1013.7 0.0
18/11:00am 21.5 18.0 13.4 60 4.7 SE 24 32 13 17 1013.9 1013.8 0.0
18/10:30am 21.0 18.0 13.7 63 4.2 SE 22 30 12 16 1013.8 1013.7 0.0
18/10:00am 21.0 16.9 13.7 63 4.2 SE 28 35 15 19 1013.9 1013.8 0.0
18/09:30am 20.7 16.7 14.1 66 3.8 SSE 28 35 15 19 1013.6 1013.5 0.0
18/09:00am 20.2 17.1 13.4 65 3.9 SE 22 32 12 17 1013.5 1013.4 0.0
18/08:30am 20.4 16.4 13.1 63 4.2 SSE 26 35 14 19 1013.2 1013.1 0.0
18/08:00am 19.4 15.8 13.1 67 3.6 SSE 24 35 13 19 1013.1 1013.0 0.0
18/07:30am 18.8 14.4 12.8 68 3.4 S 28 35 15 19 1013.2 1013.1 0.0
18/07:00am 19.5 14.4 13.0 66 3.7 SSE 32 43 17 23 1012.7 1012.6 0.0
18/06:30am 19.8 15.0 13.0 65 3.9 SSE 30 37 16 20 1012.4 1012.3 0.0
18/06:00am 19.7 15.3 12.9 65 3.8 S 28 33 15 18 1012.3 1012.2 0.0

Other formats

Comma delimited format used in spreadsheet applications
http://www.bom.gov.au/fwo/IDS60801/IDS60801.95666.axf

JavaScript Object Notation format (JSON) in row-major order
http://www.bom.gov.au/fwo/IDS60801/IDS60801.95666.json

Data quality

Most of these data are generated automatically and are frequently updated. Quality checks on data are not normally performed. It is possible for incorrect values to appear. Refer to information at About Latest Weather Observations and please check the disclaimer before using these data.